Time;durP1;ratioP1;P1;durP2;ratioP2;P2;SDS_P1;SDS_P2;PMS_P1;PMS_P2;Temp;Humidity;BMP_temperature;BMP_pressure;BME280_temperature;BME280_humidity;BME280_pressure;Samples;Min_cycle;Max_cycle;Signal;HPM_P1;HPM_P2
2023/04/28 07:01:18;;;;;;;0.50;0.50;;;13.10;99.90;15.70;100631.00;;;;6340874;22;20172;-71
2023/04/28 07:03:47;;;;;;;0.57;0.53;;;13.30;99.90;15.60;100686.00;;;;6313280;22;20907;-71
2023/04/28 07:06:17;;;;;;;2.17;2.10;;;13.20;99.90;15.60;100697.00;;;;6313751;22;20537;-71
2023/04/28 07:08:45;;;;;;;0.23;0.23;;;13.10;99.90;16.10;100696.00;;;;6287569;22;20149;-72
2023/04/28 07:11:11;;;;;;;0.43;0.43;;;13.30;99.90;17.20;100689.00;;;;6313365;22;20151;-72
2023/04/28 07:13:50;;;;;;;0.20;0.20;;;13.70;99.90;17.10;100699.00;;;;6340061;22;20150;-72
2023/04/28 07:16:24;;;;;;;0.30;0.30;;;13.80;99.90;18.10;100703.00;;;;6287605;22;20157;-69
2023/04/28 07:18:53;;;;;;;0.30;0.30;;;14.30;99.90;18.60;100707.00;;;;6312873;22;20462;-69
2023/04/28 07:21:22;;;;;;;1.30;0.80;;;14.70;99.90;18.20;100704.00;;;;6313365;22;20140;-71
2023/04/28 07:23:48;;;;;;;0.63;0.63;;;14.90;99.90;17.00;100702.00;;;;6312278;22;20689;-70
2023/04/28 07:26:15;;;;;;;1.07;1.07;;;14.40;99.90;17.50;100702.00;;;;6340731;22;20168;-70
2023/04/28 07:28:47;;;;;;;0.40;0.40;;;14.30;99.90;18.40;100708.00;;;;6312827;22;20157;-70
2023/04/28 07:31:40;;;;;;;0.30;0.30;;;14.80;99.90;18.60;100721.00;;;;6313292;22;20157;-71
2023/04/28 07:34:06;;;;;;;0.30;0.30;;;15.10;99.90;18.60;100715.00;;;;6293594;22;20171;-70
2023/04/28 07:36:40;;;;;;;0.40;0.40;;;15.40;99.90;18.90;100715.00;;;;6311999;22;20169;-70
2023/04/28 07:39:12;;;;;;;2.40;2.30;;;15.50;99.90;17.00;100696.00;;;;6340373;22;20154;-70
2023/04/28 07:41:47;;;;;;;3.53;3.20;;;15.10;99.90;16.50;100692.00;;;;6312682;22;20591;-70
2023/04/28 07:44:22;;;;;;;7.33;2.90;;;14.50;99.90;16.40;100707.00;;;;6287093;22;20200;-70
2023/04/28 07:47:09;;;;;;;1.43;1.33;;;14.50;99.90;16.50;100686.00;;;;6313096;22;20148;-70
2023/04/28 07:49:35;;;;;;;1.37;1.27;;;14.50;99.90;15.90;100720.00;;;;6340251;22;20138;-70
2023/04/28 07:52:08;;;;;;;3.23;2.43;;;14.30;99.90;16.60;100712.00;;;;6339852;22;20146;-70
2023/04/28 07:54:37;;;;;;;3.63;1.87;;;14.50;99.90;16.00;100709.00;;;;6340296;22;20560;-70
2023/04/28 07:57:06;;;;;;;1.00;1.00;;;14.50;99.90;16.20;100698.00;;;;6312753;22;20146;-70
2023/04/28 07:59:35;;;;;;;0.70;0.70;;;14.40;99.90;16.80;100711.00;;;;6281644;22;20181;-70
2023/04/28 08:02:05;;;;;;;2.13;1.70;;;14.70;99.90;15.50;100707.00;;;;6307535;22;20260;-70
2023/04/28 08:04:33;;;;;;;0.47;0.47;;;14.50;99.90;16.20;100722.00;;;;6281406;22;20153;-70
2023/04/28 08:07:05;;;;;;;0.60;0.60;;;14.50;99.90;16.20;100717.00;;;;6307140;22;20225;-70
2023/04/28 08:09:31;;;;;;;2.03;1.87;;;14.50;99.90;16.30;100718.00;;;;6307379;22;20141;-70
2023/04/28 08:11:57;;;;;;;1.10;1.00;;;14.60;99.90;16.40;100690.00;;;;6309256;22;20228;-70
2023/04/28 08:14:29;;;;;;;1.07;1.07;;;14.70;99.90;16.40;100703.00;;;;6307345;22;20147;-70
2023/04/28 08:16:56;;;;;;;1.40;1.30;;;14.70;99.90;16.20;100707.00;;;;6307453;22;20140;-70
2023/04/28 08:19:28;;;;;;;1.17;0.97;;;14.60;99.90;16.30;100721.00;;;;6307476;22;20167;-70
2023/04/28 08:22:04;;;;;;;3.43;1.67;;;14.60;99.90;16.80;100713.00;;;;6281797;22;20175;-70
2023/04/28 08:24:33;;;;;;;2.57;1.57;;;14.80;99.90;16.60;100699.00;;;;6307624;22;20172;-70
2023/04/28 08:27:05;;;;;;;3.60;1.20;;;14.90;99.90;16.30;100708.00;;;;6307343;22;20606;-70
2023/04/28 08:29:32;;;;;;;2.97;2.10;;;14.90;99.90;16.70;100713.00;;;;6306823;22;20166;-70
2023/04/28 08:32:00;;;;;;;1.10;0.77;;;14.90;99.90;17.10;100721.00;;;;6307423;22;20183;-70
2023/04/28 08:34:40;;;;;;;1.77;1.67;;;15.00;99.90;16.70;100696.00;;;;6306776;22;20583;-70
2023/04/28 08:37:06;;;;;;;1.50;1.13;;;15.10;99.90;16.60;100694.00;;;;6306898;22;20143;-70
2023/04/28 08:39:41;;;;;;;0.40;0.40;;;15.10;99.90;17.30;100720.00;;;;6307013;22;20191;-70
2023/04/28 08:42:10;;;;;;;1.80;1.70;;;15.30;99.90;17.10;100724.00;;;;6308545;22;20178;-70
2023/04/28 08:44:40;;;;;;;1.30;1.20;;;15.30;99.90;17.10;100720.00;;;;6307275;22;20150;-70
2023/04/28 08:47:16;;;;;;;1.50;1.40;;;15.40;99.90;17.30;100714.00;;;;6308342;22;20162;-70
2023/04/28 08:49:52;;;;;;;1.70;1.33;;;15.40;99.90;16.70;100665.00;;;;6306115;22;20157;-70
2023/04/28 08:52:28;;;;;;;1.43;1.23;;;15.20;99.90;17.00;100719.00;;;;6281291;22;20223;-69
2023/04/28 08:55:08;;;;;;;0.30;0.30;;;15.30;99.90;16.90;100719.00;;;;6283315;22;20166;-70
2023/04/28 08:57:44;;;;;;;1.00;0.90;;;15.30;99.90;17.30;100718.00;;;;6281541;22;20159;-70
2023/04/28 09:00:13;;;;;;;0.40;0.40;;;15.50;99.90;16.60;100723.00;;;;6280555;22;20498;-70
2023/04/28 09:02:49;;;;;;;2.77;1.87;;;15.20;99.90;17.00;100733.00;;;;6308267;22;20178;-70
2023/04/28 09:05:20;;;;;;;0.63;0.63;;;15.20;99.90;16.90;100715.00;;;;6308272;22;20162;-69
2023/04/28 09:07:50;;;;;;;0.50;0.50;;;15.20;99.90;17.60;100716.00;;;;6308257;22;20137;-70
2023/04/28 09:10:28;;;;;;;4.17;0.67;;;15.50;99.90;17.20;100709.00;;;;6306831;22;20492;-70
2023/04/28 09:12:57;;;;;;;0.40;0.40;;;15.50;99.90;17.40;100715.00;;;;6308004;22;20150;-70
2023/04/28 09:15:36;;;;;;;1.53;1.03;;;15.40;99.90;17.40;100720.00;;;;6306499;22;20155;-70
2023/04/28 09:18:16;;;;;;;2.13;1.50;;;15.50;99.90;17.60;100719.00;;;;6280346;22;20181;-68
2023/04/28 09:20:48;;;;;;;1.07;1.07;;;15.50;99.90;16.70;100728.00;;;;6281483;22;20161;-70
2023/04/28 09:23:21;;;;;;;0.20;0.20;;;15.40;99.90;17.40;100724.00;;;;6307939;22;20282;-69
2023/04/28 09:26:09;;;;;;;0.73;0.73;;;15.50;99.90;18.00;100733.00;;;;6306897;22;20148;-70
2023/04/28 09:28:38;;;;;;;0.43;0.43;;;15.60;99.90;16.70;100719.00;;;;6306418;22;20163;-70
2023/04/28 09:31:04;;;;;;;0.63;0.63;;;15.50;99.90;16.70;100716.00;;;;6281418;22;20217;-70
2023/04/28 09:33:35;;;;;;;1.77;1.27;;;15.30;99.90;16.30;100710.00;;;;6280212;22;20163;-70
2023/04/28 09:36:06;;;;;;;1.53;1.03;;;15.20;99.90;16.90;100730.00;;;;6306889;22;20139;-70
2023/04/28 09:39:13;;;;;;;1.37;0.93;;;15.30;99.90;16.90;100725.00;;;;6308487;22;20144;-70
2023/04/28 09:41:50;;;;;;;3.00;1.73;;;15.30;99.90;16.70;100726.00;;;;6305504;22;20163;-69
2023/04/28 09:44:20;;;;;;;1.10;1.00;;;15.30;99.90;17.00;100730.00;;;;6308096;22;20142;-70
2023/04/28 09:46:47;;;;;;;1.53;1.33;;;15.30;99.90;16.40;100735.00;;;;6280703;22;20242;-70
2023/04/28 09:49:25;;;;;;;0.67;0.67;;;15.20;99.90;16.60;100738.00;;;;6306711;22;20148;-70
2023/04/28 09:51:56;;;;;;;0.93;0.93;;;15.10;99.90;17.60;100734.00;;;;6306534;22;20147;-70
2023/04/28 09:54:27;;;;;;;0.50;0.50;;;15.30;99.90;16.70;100730.00;;;;6306461;22;20184;-70
2023/04/28 09:56:54;;;;;;;0.33;0.20;;;15.20;99.90;17.30;100687.00;;;;6306480;22;20146;-70
2023/04/28 09:59:30;;;;;;;0.80;0.80;;;15.30;99.90;17.70;100725.00;;;;6306042;22;20165;-70
2023/04/28 10:02:07;;;;;;;0.70;0.70;;;15.50;99.90;17.20;100729.00;;;;6280108;22;20209;-70
2023/04/28 10:04:37;;;;;;;0.57;0.57;;;15.40;99.90;16.30;100725.00;;;;6308022;22;20186;-70
2023/04/28 10:07:06;;;;;;;0.70;0.70;;;15.20;99.90;16.40;100701.00;;;;6305801;22;20151;-70
2023/04/28 10:09:36;;;;;;;0.37;0.37;;;15.10;99.90;16.40;100718.00;;;;6306520;22;20142;-70
2023/04/28 10:12:06;;;;;;;0.73;0.70;;;15.00;99.90;15.90;100726.00;;;;6306508;22;20222;-71
2023/04/28 10:14:46;;;;;;;0.27;0.27;;;14.90;99.90;16.10;100685.00;;;;6307888;22;20501;-70
2023/04/28 10:17:16;;;;;;;5.83;1.10;;;14.90;99.90;16.10;100739.00;;;;6306330;22;20467;-70
2023/04/28 10:19:49;;;;;;;0.20;0.20;;;14.90;99.90;16.70;100743.00;;;;6306599;22;20147;-70
2023/04/28 10:33:25;;;;;;;1.00;1.00;;;14.80;99.90;16.90;100788.00;;;;5070137;28;20556;-68
2023/04/28 10:35:54;;;;;;;1.50;1.30;;;15.00;99.90;17.20;100754.00;;;;5065997;28;20186;-69
2023/04/28 10:38:23;;;;;;;0.50;0.50;;;15.20;99.90;17.30;100755.00;;;;5065860;28;20191;-69
2023/04/28 10:40:52;;;;;;;1.00;0.80;;;15.30;99.90;16.60;100756.00;;;;5050242;28;20183;-69
2023/04/28 10:43:27;;;;;;;0.50;0.50;;;15.20;99.90;16.50;100760.00;;;;5049331;28;20185;-68
2023/04/28 10:45:59;;;;;;;1.73;1.30;;;15.10;99.90;16.10;100753.00;;;;5056316;28;20267;-68
2023/04/28 10:48:46;;;;;;;1.67;1.10;;;14.90;99.90;16.80;100720.00;;;;5050130;28;20206;-68
2023/04/28 10:51:15;;;;;;;0.50;0.50;;;15.00;99.90;17.20;100770.00;;;;5050253;28;20188;-68
2023/04/28 10:53:47;;;;;;;0.20;0.20;;;15.20;99.90;16.40;100765.00;;;;5050099;28;20185;-69
2023/04/28 10:56:26;;;;;;;2.43;1.17;;;15.10;99.90;16.80;100773.00;;;;5045564;28;20224;-69
2023/04/28 10:59:00;;;;;;;1.40;1.30;;;15.00;99.90;16.60;100731.00;;;;5056998;28;20205;-68
2023/04/28 11:01:35;;;;;;;1.93;1.80;;;15.00;99.90;16.30;100784.00;;;;5049051;28;20197;-68
2023/04/28 11:04:12;;;;;;;0.37;0.37;;;14.70;99.90;16.50;100773.00;;;;5048876;28;20221;-68
2023/04/28 11:06:50;;;;;;;1.10;1.00;;;14.60;99.90;16.60;100783.00;;;;5048293;28;20261;-68
2023/04/28 11:09:31;;;;;;;5.77;2.33;;;14.70;99.90;16.00;100781.00;;;;5048555;28;20694;-68
2023/04/28 11:12:01;;;;;;;0.70;0.70;;;14.60;99.90;16.20;100787.00;;;;5048689;28;20219;-69
2023/04/28 11:14:39;;;;;;;0.57;0.57;;;14.40;99.90;16.60;100776.00;;;;5049691;28;20193;-69
2023/04/28 11:17:12;;;;;;;3.10;1.83;;;14.50;99.90;16.50;100790.00;;;;5064630;28;20180;-69
2023/04/28 11:19:44;;;;;;;0.70;0.70;;;14.70;99.90;15.90;100790.00;;;;5053510;28;20252;-69
2023/04/28 11:22:24;;;;;;;0.77;0.77;;;14.50;99.90;16.00;100793.00;;;;5048689;28;20268;-69
2023/04/28 11:25:03;;;;;;;2.30;0.80;;;14.70;99.90;16.30;100750.00;;;;5047434;28;20724;-68
2023/04/28 11:27:32;;;;;;;1.07;1.00;;;14.50;99.90;16.40;100798.00;;;;5064804;28;20270;-68
2023/04/28 11:30:05;;;;;;;1.20;1.10;;;14.60;99.90;16.20;100793.00;;;;5048188;28;20189;-68
2023/04/28 11:32:48;;;;;;;1.67;1.47;;;14.50;99.90;16.10;100778.00;;;;5047978;28;20326;-68
2023/04/28 11:35:14;;;;;;;1.43;1.33;;;14.50;99.90;16.90;100803.00;;;;5053365;28;20195;-68
2023/04/28 11:37:49;;;;;;;0.93;0.73;;;14.70;99.90;16.90;100797.00;;;;5048184;28;20226;-68
2023/04/28 11:40:21;;;;;;;1.33;1.13;;;14.80;99.90;16.90;100808.00;;;;5032307;28;20196;-68
2023/04/28 11:42:57;;;;;;;1.33;1.23;;;14.80;99.90;17.00;100780.00;;;;5062020;28;20215;-69
2023/04/28 11:45:36;;;;;;;1.53;1.43;;;14.80;99.90;16.10;100797.00;;;;5050423;28;20540;-68
2023/04/28 11:48:21;;;;;;;0.47;0.47;;;14.70;99.90;17.20;100805.00;;;;5012318;28;20252;-68
2023/04/28 11:50:49;;;;;;;2.10;2.00;;;14.90;99.90;16.30;100793.00;;;;5051036;28;20181;-68
2023/04/28 11:53:16;;;;;;;3.20;2.03;;;14.70;99.90;16.60;100804.00;;;;5035852;28;20212;-68
2023/04/28 11:55:48;;;;;;;1.03;0.93;;;14.80;99.90;18.30;100818.00;;;;5049808;28;20272;-68
2023/04/28 11:58:26;;;;;;;1.03;1.03;;;15.40;99.90;17.00;100766.00;;;;5051031;28;20189;-68
2023/04/28 12:01:14;;;;;;;1.27;1.17;;;15.20;99.90;17.50;100805.00;;;;5040273;28;20221;-68
2023/04/28 12:03:53;;;;;;;0.87;0.87;;;15.30;99.90;17.90;100806.00;;;;5034117;28;20275;-68
2023/04/28 12:06:25;;;;;;;2.10;1.57;;;15.50;99.90;17.10;100810.00;;;;5034321;28;20261;-68
2023/04/28 12:09:13;;;;;;;1.13;1.00;;;15.40;99.90;17.00;100811.00;;;;5050751;28;20205;-68
2023/04/28 12:11:53;;;;;;;0.50;0.50;;;15.30;99.90;17.40;100817.00;;;;5035625;28;20206;-68
2023/04/28 12:14:19;;;;;;;0.30;0.30;;;15.40;99.90;17.70;100821.00;;;;5034141;28;20192;-69
2023/04/28 12:16:49;;;;;;;0.80;0.80;;;15.40;99.90;18.20;100834.00;;;;5035361;28;20532;-68
2023/04/28 12:19:17;;;;;;;0.97;0.70;;;15.80;99.90;17.30;100831.00;;;;5035464;28;20217;-68
2023/04/28 12:22:06;;;;;;;0.20;0.20;;;15.60;99.90;17.20;100833.00;;;;5049192;28;20181;-68
2023/04/28 12:24:34;;;;;;;0.20;0.20;;;15.50;99.90;18.00;100833.00;;;;5034921;28;20669;-68
2023/04/28 12:27:20;;;;;;;2.10;0.90;;;15.40;99.90;17.60;100834.00;;;;5033689;28;20183;-68
2023/04/28 12:29:47;;;;;;;0.17;0.17;;;15.50;99.90;18.70;100844.00;;;;5035220;28;20189;-68
2023/04/28 12:32:13;;;;;;;0.40;0.40;;;15.70;99.90;17.50;100791.00;;;;5032349;28;20217;-68
2023/04/28 12:34:42;;;;;;;1.70;1.50;;;15.60;99.90;18.10;100848.00;;;;5033972;28;20279;-68
2023/04/28 12:37:08;;;;;;;2.23;1.53;;;15.70;99.90;17.60;100838.00;;;;5050236;28;20178;-68
2023/04/28 12:39:35;;;;;;;1.27;0.83;;;15.50;99.90;17.70;100844.00;;;;5033269;28;20211;-68
2023/04/28 12:42:02;;;;;;;0.87;0.60;;;15.50;99.90;17.10;100839.00;;;;5033228;28;20196;-69
2023/04/28 12:44:36;;;;;;;0.63;0.63;;;15.30;99.90;18.40;100858.00;;;;5038457;28;20247;-68
2023/04/28 12:47:09;;;;;;;0.77;0.77;;;15.60;99.90;18.80;100865.00;;;;5033569;28;20896;-68
2023/04/28 12:49:36;;;;;;;0.83;0.80;;;16.00;99.90;18.10;100802.00;;;;5033505;28;20428;-68
2023/04/28 12:52:03;;;;;;;0.40;0.40;;;15.90;99.90;17.80;100860.00;;;;5049779;28;20210;-68
2023/04/28 12:54:32;;;;;;;0.50;0.47;;;15.80;99.90;19.00;100870.00;;;;5049508;28;20182;-68
2023/04/28 12:56:58;;;;;;;2.73;0.40;;;16.10;99.90;17.50;100856.00;;;;5033595;28;20589;-68
2023/04/28 12:59:27;;;;;;;0.47;0.47;;;15.80;99.90;17.60;100870.00;;;;5033510;28;20194;-68
2023/04/28 13:01:56;;;;;;;0.53;0.30;;;15.70;99.90;17.70;100827.00;;;;5049738;28;20198;-68
2023/04/28 13:04:24;;;;;;;0.47;0.47;;;15.70;99.90;16.90;100803.00;;;;5033224;28;20184;-68
2023/04/28 13:06:51;;;;;;;0.20;0.20;;;15.50;99.90;17.30;100847.00;;;;5021881;28;20225;-68
2023/04/28 13:09:24;;;;;;;0.77;0.77;;;15.30;99.90;17.00;100866.00;;;;5031010;28;20194;-68
2023/04/28 13:11:52;;;;;;;0.30;0.30;;;15.30;99.90;16.80;100860.00;;;;5032887;28;20204;-68
2023/04/28 13:14:34;;;;;;;0.57;0.37;;;15.20;99.90;16.60;100860.00;;;;5033265;28;20649;-68
2023/04/28 13:17:14;;;;;;;1.40;0.93;;;15.10;99.90;17.90;100867.00;;;;5026949;28;20185;-68
2023/04/28 13:19:46;;;;;;;0.43;0.30;;;15.40;99.90;17.40;100878.00;;;;5049571;28;20212;-68
2023/04/28 13:22:12;;;;;;;0.43;0.43;;;15.40;99.90;17.00;100872.00;;;;5032470;28;20282;-68
2023/04/28 13:24:41;;;;;;;1.03;1.03;;;15.30;99.90;17.20;100871.00;;;;5033448;28;20649;-68
2023/04/28 13:27:10;;;;;;;0.67;0.67;;;15.30;99.90;17.10;100846.00;;;;5032759;28;20550;-68
2023/04/28 13:29:41;;;;;;;0.70;0.70;;;15.20;99.90;16.70;100880.00;;;;5049194;28;20184;-68
2023/04/28 13:32:09;;;;;;;1.03;0.97;;;15.10;99.90;16.90;100829.00;;;;5022803;28;20209;-68
2023/04/28 13:34:39;;;;;;;0.43;0.43;;;15.20;99.90;16.90;100893.00;;;;5049268;28;20189;-68
2023/04/28 13:37:08;;;;;;;0.87;0.87;;;15.20;99.90;16.70;100880.00;;;;5048845;28;20218;-68
2023/04/28 13:39:34;;;;;;;0.90;0.90;;;15.20;99.90;17.10;100887.00;;;;5016301;28;20602;-68
2023/04/28 13:42:00;;;;;;;2.40;2.20;;;15.20;99.90;18.20;100904.00;;;;5033907;28;20188;-68
2023/04/28 13:44:32;;;;;;;0.97;0.80;;;15.50;99.90;17.60;100897.00;;;;5032967;28;20189;-68
2023/04/28 13:47:02;;;;;;;0.63;0.63;;;15.50;99.90;17.30;100837.00;;;;5031402;28;20683;-68
2023/04/28 13:49:28;;;;;;;1.87;0.80;;;15.50;99.90;16.50;100874.00;;;;5033668;28;20179;-68
2023/04/28 13:51:55;;;;;;;0.80;0.73;;;15.20;99.90;16.70;100877.00;;;;5032343;28;20207;-68
2023/04/28 13:54:21;;;;;;;1.03;0.93;;;15.10;99.90;16.30;100858.00;;;;5016035;28;20518;-68
2023/04/28 13:56:50;;;;;;;1.77;0.70;;;15.10;99.90;16.60;100874.00;;;;5032528;28;20208;-68
2023/04/28 13:59:24;;;;;;;4.73;1.90;;;15.10;99.90;17.40;100888.00;;;;5047274;28;20185;-68
2023/04/28 14:01:50;;;;;;;0.77;0.77;;;15.40;99.90;17.00;100879.00;;;;5032150;28;20549;-68
2023/04/28 14:04:16;;;;;;;1.53;1.43;;;15.30;99.90;16.80;100882.00;;;;5037254;28;20193;-68
2023/04/28 14:06:49;;;;;;;3.40;2.00;;;15.40;99.90;18.50;100898.00;;;;5031730;28;20230;-68
2023/04/28 14:09:22;;;;;;;1.17;1.07;;;15.80;99.90;17.00;100885.00;;;;5031652;28;20205;-69
2023/04/28 14:11:57;;;;;;;1.87;1.57;;;15.60;99.90;17.50;100872.00;;;;5032923;28;20209;-68
2023/04/28 14:14:23;;;;;;;2.00;1.03;;;15.60;99.90;18.10;100901.00;;;;5032052;28;20530;-69
2023/04/28 14:16:54;;;;;;;1.53;1.17;;;15.70;99.90;17.60;100911.00;;;;5031891;28;20221;-68
2023/04/28 14:19:26;;;;;;;0.90;0.30;;;15.90;99.90;17.70;100906.00;;;;5032072;28;20233;-68
2023/04/28 14:22:11;;;;;;;2.73;2.20;;;15.90;99.90;18.10;100892.00;;;;5032997;28;20203;-68
2023/04/28 14:24:41;;;;;;;0.50;0.50;;;15.90;99.90;17.80;100888.00;;;;5044789;28;20198;-68
2023/04/28 14:27:38;;;;;;;1.67;1.57;;;15.90;99.90;17.60;100896.00;;;;5048421;28;20257;-68
2023/04/28 14:30:07;;;;;;;1.63;1.53;;;15.90;99.90;17.60;100897.00;;;;5037929;28;20183;-68
2023/04/28 14:32:37;;;;;;;8.37;2.33;;;15.80;99.90;17.90;100904.00;;;;5031774;28;20222;-69
2023/04/28 14:35:08;;;;;;;1.90;1.50;;;15.80;99.90;17.50;100892.00;;;;5034942;28;20192;-68
2023/04/28 14:37:34;;;;;;;4.77;2.13;;;15.80;99.90;17.70;100897.00;;;;5031697;28;20194;-68
2023/04/28 14:40:04;;;;;;;3.20;2.40;;;15.80;99.90;18.90;100918.00;;;;5048344;28;20597;-69
2023/04/28 14:42:36;;;;;;;2.73;2.30;;;16.10;99.90;18.50;100913.00;;;;5031796;28;20195;-69
2023/04/28 14:45:09;;;;;;;1.50;1.33;;;16.20;99.90;19.70;100916.00;;;;5047995;28;20194;-69
2023/04/28 14:47:47;;;;;;;0.87;0.87;;;16.40;99.90;18.30;100910.00;;;;5031525;28;20186;-69
2023/04/28 14:50:28;;;;;;;1.17;0.97;;;16.30;99.90;18.10;100911.00;;;;5048398;28;20633;-69
2023/04/28 14:53:04;;;;;;;2.10;1.90;;;16.10;99.90;18.90;100875.00;;;;5046808;28;20206;-69
2023/04/28 14:55:46;;;;;;;;;;;;;;;;;;;;;
2023/04/28 14:58:12;;;;;;;1.60;1.40;;;16.30;99.90;18.20;100912.00;;;;5045740;28;20213;-69
2023/04/28 15:00:38;;;;;;;0.63;0.63;;;16.20;99.90;18.00;100897.00;;;;5031729;28;20689;-69
2023/04/28 15:03:04;;;;;;;0.80;0.80;;;16.00;99.90;18.30;100907.00;;;;5015211;28;20194;-69
2023/04/28 15:05:31;;;;;;;0.87;0.63;;;15.90;99.90;19.00;100909.00;;;;5014859;28;20184;-69
2023/04/28 15:07:57;;;;;;;2.80;1.53;;;16.20;99.90;18.80;100923.00;;;;5031349;28;20181;-69
2023/04/28 15:10:23;;;;;;;0.90;0.83;;;16.10;99.90;19.10;100929.00;;;;5031315;28;20590;-68
2023/04/28 15:12:52;;;;;;;0.20;0.20;;;16.30;99.90;18.20;100911.00;;;;5046645;28;20608;-69
2023/04/28 15:15:21;;;;;;;0.50;0.50;;;16.20;99.90;19.00;100920.00;;;;5048268;28;20176;-69
2023/04/28 15:17:47;;;;;;;2.20;1.90;;;16.20;99.90;17.60;100879.00;;;;5014721;28;20637;-69
2023/04/28 15:20:15;;;;;;;0.73;0.73;;;15.90;99.90;17.80;100904.00;;;;5034755;28;20190;-69
2023/04/28 15:22:43;;;;;;;0.70;0.70;;;15.90;99.90;18.40;100913.00;;;;5035329;28;20327;-69
2023/04/28 15:25:09;;;;;;;0.73;0.73;;;15.90;99.90;17.30;100912.00;;;;5035899;28;20231;-69
2023/04/28 15:27:35;;;;;;;1.23;0.97;;;15.70;99.90;17.70;100897.00;;;;5051944;28;20277;-69
2023/04/28 15:30:01;;;;;;;1.17;0.93;;;15.70;99.90;17.10;100903.00;;;;5035654;28;20324;-69
2023/04/28 15:32:31;;;;;;;0.53;0.53;;;15.60;99.90;17.80;100921.00;;;;5036034;28;20207;-69
2023/04/28 15:35:00;;;;;;;1.50;1.40;;;15.60;99.90;16.90;100852.00;;;;5035815;28;20563;-69
2023/04/28 15:37:50;;;;;;;1.10;1.10;;;15.40;99.90;17.10;100922.00;;;;5047075;28;20664;-68
2023/04/28 15:40:20;;;;;;;0.47;0.47;;;15.40;99.90;18.70;100914.00;;;;5034748;28;20608;-68
2023/04/28 15:42:51;;;;;;;0.83;0.83;;;15.80;99.90;18.20;100904.00;;;;5034571;28;20211;-68
2023/04/28 15:45:23;;;;;;;1.20;1.10;;;15.80;99.90;17.60;100920.00;;;;5035901;28;20237;-68
2023/04/28 15:47:53;;;;;;;2.60;1.23;;;15.80;99.90;18.40;100921.00;;;;5050808;28;20184;-68
2023/04/28 15:50:23;;;;;;;0.20;0.20;;;15.90;99.90;18.70;100884.00;;;;5034548;28;20629;-69
2023/04/28 15:52:56;;;;;;;1.43;1.17;;;16.00;99.90;17.30;100931.00;;;;5035803;28;20264;-68
2023/04/28 15:55:31;;;;;;;0.50;0.50;;;15.80;99.90;17.20;100907.00;;;;5035633;28;20176;-69
2023/04/28 15:58:03;;;;;;;0.97;0.67;;;15.60;99.90;17.90;100928.00;;;;5034327;28;20347;-68
2023/04/28 16:00:32;;;;;;;0.90;0.70;;;15.70;99.90;18.20;100924.00;;;;5035737;28;20188;-68
2023/04/28 16:03:09;;;;;;;0.73;0.50;;;15.80;99.90;17.70;100928.00;;;;5051271;28;20283;-69
2023/04/28 16:05:41;;;;;;;1.00;0.80;;;15.70;99.90;18.10;100918.00;;;;5033867;28;20224;-69
2023/04/28 16:08:09;;;;;;;1.00;0.70;;;15.70;99.90;17.50;100943.00;;;;5034016;28;20203;-68
2023/04/28 16:10:35;;;;;;;1.17;1.17;;;15.70;99.90;18.30;100933.00;;;;5048452;28;20267;-68
2023/04/28 16:13:31;;;;;;;0.30;0.23;;;15.70;99.90;19.20;100967.00;;;;5035030;28;20272;-68
2023/04/28 16:16:29;;;;;;;0.20;0.20;;;16.00;99.90;18.80;100968.00;;;;5024973;28;20731;-68
2023/04/28 16:19:38;;;;;;;0.97;0.97;;;16.00;99.90;18.10;100956.00;;;;5039052;28;20209;-68
2023/04/28 16:22:28;;;;;;;0.60;0.60;;;15.70;99.90;18.40;100968.00;;;;5025589;28;20624;-69
2023/04/28 16:25:17;;;;;;;0.37;0.37;;;15.80;99.90;18.90;100984.00;;;;5016257;28;20215;-69
2023/04/28 16:27:55;;;;;;;0.70;0.70;;;16.00;99.90;17.70;100960.00;;;;5012595;28;20274;-68
2023/04/28 16:31:08;;;;;;;0.40;0.40;;;15.70;99.90;17.70;100969.00;;;;5050204;28;20640;-68
2023/04/28 16:33:57;;;;;;;1.53;1.00;;;15.60;99.90;17.40;100958.00;;;;5031199;28;20203;-69
2023/04/28 16:36:52;;;;;;;0.60;0.60;;;15.50;99.90;17.20;100948.00;;;;5033690;28;20262;-68
2023/04/28 16:39:45;;;;;;;2.97;0.70;;;15.20;99.90;16.70;100949.00;;;;5031064;28;20321;-68
2023/04/28 16:42:32;;;;;;;1.53;1.43;;;15.10;99.90;16.60;100937.00;;;;5048401;28;20198;-68
2023/04/28 16:45:22;;;;;;;0.67;0.67;;;14.90;99.90;17.40;100948.00;;;;5035060;28;20191;-68
2023/04/28 16:48:11;;;;;;;2.63;1.53;;;15.10;99.90;16.70;100950.00;;;;5036342;28;20647;-69
2023/04/28 16:51:00;;;;;;;1.30;1.20;;;15.10;99.90;16.50;100948.00;;;;4992968;28;20197;-68
2023/04/28 16:53:52;;;;;;;0.20;0.20;;;14.90;99.90;17.20;100944.00;;;;4995318;28;20224;-69
2023/04/28 16:56:38;;;;;;;1.07;0.70;;;15.00;99.90;16.90;100957.00;;;;4989530;28;20686;-69
2023/04/28 16:59:32;;;;;;;2.50;1.73;;;14.90;99.90;16.90;100951.00;;;;4992012;28;20199;-68
2023/04/28 17:02:28;;;;;;;2.97;1.53;;;14.90;99.90;17.00;100958.00;;;;4964712;28;20193;-69
2023/04/28 17:05:23;;;;;;;2.93;1.67;;;14.80;99.90;16.20;100948.00;;;;5012493;28;20196;-68
2023/04/28 17:08:29;;;;;;;0.73;0.73;;;14.70;99.90;17.20;100901.00;;;;5006185;28;20674;-68
2023/04/28 17:11:25;;;;;;;3.10;0.70;;;14.70;99.90;17.30;100927.00;;;;5005522;28;20259;-68
2023/04/28 17:14:18;;;;;;;0.70;0.63;;;14.90;99.90;17.40;100955.00;;;;5010091;28;20199;-68
2023/04/28 17:17:16;;;;;;;1.73;1.63;;;14.90;99.90;16.50;100944.00;;;;4988411;28;20271;-69
2023/04/28 17:20:03;;;;;;;1.03;0.80;;;14.80;99.90;16.80;100958.00;;;;4988992;28;20203;-69
2023/04/28 17:23:14;;;;;;;0.40;0.40;;;14.70;99.90;17.40;100956.00;;;;5049508;28;20242;-69
2023/04/28 17:26:24;;;;;;;1.60;1.50;;;14.80;99.90;16.30;100961.00;;;;5032986;28;20214;-69
2023/04/28 17:29:14;;;;;;;1.03;1.00;;;14.60;99.90;16.70;100959.00;;;;5032676;28;20206;-69
2023/04/28 17:32:23;;;;;;;1.80;1.10;;;14.60;99.90;16.80;100969.00;;;;5026310;28;20232;-69
2023/04/28 17:35:19;;;;;;;1.10;1.03;;;14.70;99.90;16.50;100962.00;;;;5025070;28;20288;-69
2023/04/28 17:38:28;;;;;;;2.33;2.13;;;14.50;99.90;16.10;100965.00;;;;5025932;28;20213;-69
2023/04/28 17:45:08;;;;;;;1.80;1.70;;;14.40;99.90;16.70;100948.00;;;;5038422;28;20213;-69
2023/04/28 17:47:59;;;;;;;0.60;0.60;;;14.50;99.90;16.50;100974.00;;;;5031624;28;20260;-69
2023/04/28 17:50:52;;;;;;;3.50;3.20;;;14.40;99.90;16.60;100985.00;;;;4990087;28;20261;-69
2023/04/28 17:53:41;;;;;;;2.00;1.63;;;14.20;99.90;16.70;100971.00;;;;5033298;28;20749;-69
2023/04/28 17:57:03;;;;;;;1.43;1.40;;;14.30;99.90;15.70;100985.00;;;;5033475;28;20184;-69
2023/04/28 18:00:00;;;;;;;2.87;2.33;;;14.40;99.90;16.40;100987.00;;;;5015872;28;20646;-69
2023/04/28 18:02:26;;;;;;;3.47;2.17;;;14.20;99.90;16.80;100983.00;;;;5031607;28;20200;-69
2023/04/28 18:05:19;;;;;;;1.87;1.77;;;14.40;99.90;16.40;100989.00;;;;5048935;28;20264;-69
2023/04/28 18:08:23;;;;;;;5.00;3.50;;;14.40;99.90;17.50;100987.00;;;;5039727;28;20199;-69
2023/04/28 18:11:30;;;;;;;1.47;0.93;;;14.60;99.90;16.90;100988.00;;;;5042760;28;20191;-69
2023/04/28 18:14:25;;;;;;;0.40;0.40;;;14.60;99.90;17.30;100985.00;;;;5029781;28;20206;-69
2023/04/28 18:17:32;;;;;;;3.63;1.83;;;14.60;99.90;17.20;100997.00;;;;5042127;28;20707;-69
2023/04/28 18:20:38;;;;;;;3.63;3.33;;;14.40;99.90;16.30;100988.00;;;;5031472;28;20223;-69
2023/04/28 18:23:31;;;;;;;4.17;3.77;;;14.30;99.90;16.40;100995.00;;;;5026935;28;20414;-69
2023/04/28 18:26:25;;;;;;;10.33;9.20;;;14.20;99.90;16.80;101007.00;;;;5030797;28;20573;-69
2023/04/28 18:32:27;;;;;;;1.90;1.80;;;14.60;99.90;16.80;101014.00;;;;5043154;28;20584;-69
2023/04/28 18:35:35;;;;;;;0.83;0.83;;;14.40;99.90;17.80;101035.00;;;;5031891;28;20664;-69
2023/04/28 18:38:29;;;;;;;0.53;0.53;;;14.70;99.90;17.60;101038.00;;;;5030523;28;20195;-69
2023/04/28 18:41:38;;;;;;;1.37;1.27;;;14.80;99.90;17.90;101040.00;;;;5026590;28;20211;-69
2023/04/28 18:44:48;;;;;;;0.27;0.27;;;14.90;99.90;18.10;101051.00;;;;5032215;28;20204;-69
2023/04/28 18:47:44;;;;;;;0.73;0.73;;;14.90;99.90;18.00;101043.00;;;;5011003;28;20197;-69